createdAt,value
2022-10-19T00:01:20.717Z,353.02
2022-10-19T00:03:53.040Z,369.73
2022-10-19T00:06:26.070Z,360.88
2022-10-19T00:09:04.075Z,370.40
2022-10-19T00:11:33.592Z,351.30
2022-10-19T00:14:03.195Z,321.73
2022-10-19T00:16:35.546Z,291.85
2022-10-19T00:19:07.073Z,359.23
2022-10-19T00:21:36.051Z,344.13
2022-10-19T00:24:05.026Z,332.38
2022-10-19T00:26:34.137Z,321.92
2022-10-19T00:29:03.047Z,332.60
2022-10-19T00:31:33.389Z,343.02
2022-10-19T00:34:02.032Z,326.25
2022-10-19T00:36:33.358Z,333.48
2022-10-19T00:39:02.984Z,334.73
2022-10-19T00:41:33.386Z,317.85
2022-10-19T00:44:04.295Z,303.48
2022-10-19T00:46:36.596Z,312.48
2022-10-19T00:49:13.923Z,389.23
2022-10-19T00:51:46.550Z,349.73
2022-10-19T00:54:16.009Z,298.70
2022-10-19T00:56:46.442Z,342.13
2022-10-19T00:59:16.448Z,315.08
2022-10-19T01:01:51.298Z,287.33
2022-10-19T01:04:23.123Z,348.42
2022-10-19T01:09:20.398Z,288.20
2022-10-19T01:11:59.232Z,296.48
2022-10-19T01:14:38.581Z,278.05
2022-10-19T01:17:14.762Z,295.25
2022-10-19T01:20:05.873Z,301.27
2022-10-19T01:22:46.674Z,332.45
2022-10-19T01:25:23.765Z,305.20
2022-10-19T01:28:01.791Z,298.38
2022-10-19T01:30:41.996Z,297.15
2022-10-19T01:33:26.342Z,318.77
2022-10-19T01:36:03.198Z,328.05
2022-10-19T01:38:36.230Z,321.45
2022-10-19T01:41:11.583Z,340.10
2022-10-19T01:43:42.846Z,322.35
2022-10-19T01:46:15.144Z,329.10
2022-10-19T01:48:48.864Z,329.98
2022-10-19T01:51:20.519Z,315.08
2022-10-19T01:53:52.759Z,342.83
2022-10-19T01:56:26.000Z,309.67
2022-10-19T01:58:56.213Z,312.67
2022-10-19T02:01:27.137Z,311.58
2022-10-19T02:03:55.848Z,283.45
2022-10-19T02:06:24.580Z,274.30
2022-10-19T02:08:54.361Z,268.25
2022-10-19T02:11:24.504Z,277.63
2022-10-19T02:13:56.019Z,280.60
2022-10-19T02:16:29.251Z,280.27
2022-10-19T02:18:58.116Z,280.00
2022-10-19T02:21:27.273Z,273.23
2022-10-19T02:23:55.744Z,292.90
2022-10-19T02:26:24.304Z,285.80
2022-10-19T02:28:52.978Z,294.55
2022-10-19T02:31:21.611Z,293.30
2022-10-19T02:33:51.538Z,303.95
2022-10-19T02:36:20.632Z,341.35
2022-10-19T02:38:49.385Z,324.27
2022-10-19T02:41:19.809Z,329.33
2022-10-19T02:43:52.767Z,368.65
2022-10-19T02:46:25.211Z,321.02
2022-10-19T02:48:55.402Z,368.63
2022-10-19T02:51:31.550Z,318.52
2022-10-19T02:54:04.117Z,374.40
2022-10-19T02:56:34.022Z,344.58
2022-10-19T02:59:02.513Z,336.23
2022-10-19T03:01:31.111Z,346.10
2022-10-19T03:04:01.152Z,345.23
2022-10-19T03:06:30.002Z,366.92
2022-10-19T03:25:11.294Z,370.40
2022-10-19T03:27:39.990Z,356.10
2022-10-19T03:30:09.181Z,334.88
2022-10-19T03:32:44.648Z,402.55
2022-10-19T03:35:16.364Z,416.73
2022-10-19T03:47:29.191Z,390.50
2022-10-19T03:50:03.700Z,387.15
2022-10-19T03:55:35.108Z,438.67
2022-10-19T04:05:03.811Z,456.17
2022-10-19T04:07:33.403Z,394.70
2022-10-19T04:16:20.896Z,485.83
2022-10-19T04:25:43.492Z,441.02
2022-10-19T04:30:42.187Z,404.67
2022-10-19T04:36:12.743Z,441.48
2022-10-19T04:38:42.087Z,399.50
2022-10-19T04:41:13.643Z,442.42
2022-10-19T04:43:45.196Z,392.92
2022-10-19T04:46:18.522Z,453.48
2022-10-19T04:48:48.264Z,399.70
2022-10-19T04:51:17.645Z,387.73
2022-10-19T04:53:48.951Z,432.90
2022-10-19T04:56:20.247Z,376.55
2022-10-19T04:59:01.209Z,381.73
2022-10-19T05:01:40.423Z,444.75
2022-10-19T06:10:17.472Z,440.50
2022-10-19T06:12:46.835Z,418.58
2022-10-19T06:15:16.061Z,428.50
2022-10-19T06:17:45.050Z,431.98
2022-10-19T06:20:14.355Z,448.30
2022-10-19T06:22:42.997Z,438.02
2022-10-19T06:25:12.629Z,445.92
2022-10-19T06:27:43.882Z,440.67
2022-10-19T06:30:13.230Z,461.35
2022-10-19T06:32:41.900Z,406.00
2022-10-19T06:35:10.992Z,387.45
2022-10-19T06:37:39.680Z,474.67
2022-10-19T06:40:09.272Z,432.70
2022-10-19T06:42:39.255Z,400.42
2022-10-19T06:45:11.073Z,439.17
2022-10-19T06:47:39.719Z,387.67
2022-10-19T06:50:08.951Z,372.88
2022-10-19T06:52:38.451Z,472.58
2022-10-19T06:55:07.939Z,365.38
2022-10-19T06:57:36.980Z,397.67
2022-10-19T07:00:06.409Z,413.38
2022-10-19T07:02:36.454Z,355.15
2022-10-19T07:05:07.109Z,341.75
2022-10-19T07:07:36.565Z,360.10
2022-10-19T07:10:06.027Z,383.45
2022-10-19T07:12:34.649Z,343.60
2022-10-19T07:15:03.200Z,382.00
2022-10-19T07:17:32.080Z,370.95
2022-10-19T07:20:02.972Z,387.75
2022-10-19T07:22:31.593Z,444.10
2022-10-19T07:25:00.128Z,409.08
2022-10-19T07:27:28.804Z,424.23
2022-10-19T07:29:57.393Z,391.25
2022-10-19T07:32:26.115Z,420.10
2022-10-19T07:34:54.578Z,454.45
2022-10-19T07:37:24.546Z,418.25
2022-10-19T07:39:53.068Z,439.08
2022-10-19T07:44:51.055Z,463.50
2022-10-19T07:47:19.547Z,367.77
2022-10-19T07:49:48.089Z,377.00
2022-10-19T07:52:16.942Z,401.88
2022-10-19T07:54:49.431Z,423.88
2022-10-19T07:57:17.997Z,377.50
2022-10-19T07:59:46.546Z,418.33
2022-10-19T08:02:17.148Z,465.20
2022-10-19T08:05:00.323Z,394.60
2022-10-19T08:10:00.373Z,406.00
2022-10-19T08:12:28.850Z,379.10
2022-10-19T08:14:57.330Z,379.40
2022-10-19T08:17:25.816Z,393.38
2022-10-19T08:19:54.271Z,382.73
2022-10-19T08:22:22.929Z,368.63
2022-10-19T08:24:51.388Z,359.08
2022-10-19T08:27:21.507Z,375.50
2022-10-19T08:29:50.654Z,323.67
2022-10-19T08:32:19.513Z,291.00
2022-10-19T08:34:48.049Z,345.10
2022-10-19T08:37:26.264Z,264.02
2022-10-19T08:40:06.361Z,404.95
2022-10-19T08:42:47.884Z,317.75
2022-10-19T08:45:29.955Z,419.77
2022-10-19T08:48:11.989Z,434.63
2022-10-19T08:50:42.238Z,375.85
2022-10-19T08:53:15.642Z,407.98
2022-10-19T08:55:51.212Z,444.93
2022-10-19T08:58:37.886Z,489.33
2022-10-19T09:01:10.814Z,497.08
2022-10-19T09:03:54.874Z,406.83
2022-10-19T09:06:27.563Z,570.40
2022-10-19T09:08:59.035Z,599.95
2022-10-19T09:11:30.312Z,397.95
2022-10-19T09:14:06.912Z,390.58
2022-10-19T09:16:36.057Z,392.98
2022-10-19T09:19:05.064Z,470.13
2022-10-19T09:21:47.093Z,483.15
2022-10-19T09:24:28.503Z,461.45
2022-10-19T09:26:58.785Z,522.95
2022-10-19T09:29:34.072Z,532.20
2022-10-19T09:32:07.240Z,489.95
2022-10-19T09:34:39.528Z,549.40
2022-10-19T09:37:08.014Z,571.33
2022-10-19T09:39:36.690Z,549.95
2022-10-19T09:42:11.815Z,887.25
2022-10-19T09:44:41.921Z,859.63
2022-10-19T09:47:29.905Z,854.63
2022-10-19T09:50:09.770Z,645.78
2022-10-19T09:52:40.127Z,466.08
2022-10-19T09:55:16.852Z,497.02
2022-10-19T09:57:49.363Z,444.02
2022-10-19T10:00:22.137Z,489.98
2022-10-19T10:02:51.753Z,465.10
2022-10-19T10:05:20.373Z,457.75
2022-10-19T10:07:51.555Z,469.08
2022-10-19T10:10:28.138Z,468.35
2022-10-19T10:12:59.880Z,482.33
2022-10-19T10:15:36.973Z,479.75
2022-10-19T10:18:05.660Z,432.83
2022-10-19T10:20:34.144Z,456.08
2022-10-19T10:23:05.121Z,443.27
2022-10-19T10:25:35.127Z,472.42
2022-10-19T10:28:05.688Z,473.58
2022-10-19T10:30:37.162Z,473.42
2022-10-19T10:33:15.752Z,432.10
2022-10-19T10:35:57.730Z,439.50
2022-10-19T10:38:29.190Z,453.15
2022-10-19T10:41:14.790Z,466.33
2022-10-19T10:43:52.840Z,447.75
2022-10-19T10:46:27.726Z,451.75
2022-10-19T10:48:59.290Z,537.60
2022-10-19T10:51:34.394Z,567.60
2022-10-19T10:54:17.849Z,695.67
2022-10-19T10:56:56.044Z,800.50
2022-10-19T10:59:27.816Z,674.88
2022-10-19T11:02:04.879Z,529.13
2022-10-19T11:04:36.843Z,419.70
2022-10-19T11:07:13.621Z,500.92
2022-10-19T11:09:46.066Z,473.02
2022-10-19T11:12:16.665Z,479.67
2022-10-19T11:14:51.056Z,559.47
2022-10-19T12:17:35.363Z,411.35
2022-10-19T12:20:13.013Z,333.45
2022-10-19T12:28:05.466Z,442.58
2022-10-19T12:41:23.842Z,418.10
2022-10-19T12:44:13.742Z,381.83
2022-10-19T13:21:51.431Z,402.02
2022-10-19T13:24:38.301Z,413.25
2022-10-19T13:27:27.126Z,426.77
2022-10-19T13:29:59.318Z,411.70
2022-10-19T13:32:43.436Z,413.67
2022-10-19T13:35:26.631Z,367.63
2022-10-19T13:38:27.261Z,389.05
2022-10-19T13:41:16.719Z,444.88
2022-10-19T13:44:03.514Z,398.33
2022-10-19T13:47:01.870Z,392.25
2022-10-19T13:49:52.071Z,449.02
2022-10-19T13:52:46.728Z,376.05
2022-10-19T13:55:47.786Z,382.20
2022-10-19T13:58:46.707Z,476.92
2022-10-19T14:01:25.078Z,361.23
2022-10-19T14:04:05.463Z,433.45
2022-10-19T14:06:38.633Z,436.70
2022-10-19T14:09:35.766Z,439.60
2022-10-19T14:12:12.323Z,409.92
2022-10-19T14:14:43.609Z,366.77
2022-10-19T14:17:24.799Z,348.55
2022-10-19T14:19:55.645Z,396.33
2022-10-19T14:22:30.588Z,363.13
2022-10-19T14:25:05.727Z,353.15
2022-10-19T14:27:37.449Z,421.58
2022-10-19T14:32:53.999Z,407.25
2022-10-19T14:35:28.937Z,387.17
2022-10-19T14:37:59.712Z,420.63
2022-10-19T14:40:37.326Z,471.88
2022-10-19T14:43:23.987Z,452.95
2022-10-19T14:46:11.105Z,452.38
2022-10-19T14:48:41.395Z,467.38
2022-10-19T14:51:21.296Z,404.52
2022-10-19T14:53:54.791Z,428.73
2022-10-19T14:59:04.204Z,433.75
2022-10-19T15:01:37.172Z,479.55
2022-10-19T15:04:13.259Z,469.48
2022-10-19T15:06:57.347Z,463.40
2022-10-19T15:09:48.636Z,466.95
2022-10-19T15:12:24.203Z,476.13
2022-10-19T15:14:57.715Z,473.58
2022-10-19T15:17:32.054Z,425.10
2022-10-19T15:22:42.089Z,462.13
2022-10-19T15:25:36.312Z,429.57
2022-10-19T15:28:37.427Z,440.13
2022-10-19T15:31:19.024Z,447.08
2022-10-19T15:33:51.671Z,464.40
2022-10-19T15:36:21.638Z,468.35
2022-10-19T15:38:51.402Z,443.23
2022-10-19T15:41:28.884Z,430.42
2022-10-19T15:44:00.164Z,477.83
2022-10-19T15:46:32.525Z,464.30
2022-10-19T15:49:06.870Z,443.25
2022-10-19T15:51:44.773Z,468.15
2022-10-19T15:54:16.097Z,433.08
2022-10-19T15:56:46.604Z,429.75
2022-10-19T15:59:17.333Z,425.65
2022-10-19T16:04:34.914Z,463.70
2022-10-19T16:07:03.650Z,418.65
2022-10-19T16:09:32.463Z,414.92
2022-10-19T16:12:01.119Z,463.88
2022-10-19T16:14:33.033Z,428.95
2022-10-19T16:17:06.114Z,437.95
2022-10-19T16:19:34.667Z,426.33
2022-10-19T16:22:05.110Z,431.48
2022-10-19T16:24:33.720Z,457.08
2022-10-19T16:27:02.575Z,449.02
2022-10-19T16:29:31.131Z,482.92
2022-10-19T16:31:59.875Z,460.13
2022-10-19T16:34:31.435Z,487.67
2022-10-19T16:37:02.705Z,471.10
2022-10-19T16:42:06.871Z,486.25
2022-10-19T16:44:35.827Z,462.70
2022-10-19T16:47:06.308Z,442.20
2022-10-19T16:49:37.855Z,460.05
2022-10-19T16:52:06.966Z,449.00
2022-10-19T16:54:35.425Z,411.98
2022-10-19T16:57:09.464Z,437.08
2022-10-19T17:02:07.067Z,446.33
2022-10-19T17:05:10.121Z,428.13
2022-10-19T17:20:48.400Z,369.08
2022-10-19T17:23:17.052Z,445.52
2022-10-19T17:25:48.991Z,399.33
2022-10-19T17:28:17.535Z,384.85
2022-10-19T17:30:47.595Z,351.95
2022-10-19T17:33:16.241Z,386.88
2022-10-19T17:35:44.887Z,395.98
2022-10-19T17:38:14.932Z,424.95
2022-10-19T17:40:43.464Z,329.77
2022-10-19T17:43:11.946Z,299.52
2022-10-19T17:45:40.451Z,354.17
2022-10-19T17:48:09.515Z,317.92
2022-10-19T17:50:38.031Z,316.35
2022-10-19T17:53:06.595Z,306.92
2022-10-19T17:55:39.623Z,296.58
2022-10-19T17:58:08.101Z,392.70
2022-10-19T18:00:36.611Z,371.55
2022-10-19T18:03:05.335Z,399.77
2022-10-19T18:05:33.888Z,413.05
2022-10-19T18:08:02.552Z,397.23
2022-10-19T18:10:31.105Z,409.98
2022-10-19T18:13:01.072Z,420.30
2022-10-19T18:15:29.647Z,425.17
2022-10-19T18:17:59.263Z,415.10
2022-10-19T18:20:28.174Z,447.02
2022-10-19T18:22:56.762Z,437.17
2022-10-19T18:25:42.238Z,432.17
2022-10-19T18:28:15.336Z,414.15
2022-10-19T18:30:45.272Z,447.55
2022-10-19T18:33:14.123Z,455.02
2022-10-19T18:35:43.036Z,454.45
2022-10-19T18:38:11.576Z,412.85
2022-10-19T18:40:40.082Z,388.88
2022-10-19T18:43:08.865Z,390.98
2022-10-19T18:45:40.435Z,409.15
2022-10-19T18:48:08.960Z,393.33
2022-10-19T18:50:37.734Z,376.90
2022-10-19T18:53:07.234Z,386.33
2022-10-19T18:55:37.619Z,389.15
2022-10-19T18:58:06.517Z,400.02
2022-10-19T19:00:35.172Z,366.35
2022-10-19T19:03:05.421Z,410.90
2022-10-19T19:05:34.403Z,414.08
2022-10-19T19:08:04.533Z,393.80
2022-10-19T19:10:33.371Z,428.88
2022-10-19T19:13:05.643Z,395.55
2022-10-19T19:15:38.841Z,389.17
2022-10-19T19:18:09.187Z,429.40
2022-10-19T19:20:43.940Z,437.08
2022-10-19T19:23:24.132Z,448.63
2022-10-19T19:25:53.095Z,431.23
2022-10-19T19:28:22.468Z,436.20
2022-10-19T19:30:51.498Z,424.38
2022-10-19T19:33:21.757Z,404.23
2022-10-19T19:35:52.571Z,410.83
2022-10-19T19:38:21.637Z,424.70
2022-10-19T19:40:50.510Z,439.98
2022-10-19T19:43:20.515Z,422.08
2022-10-19T19:45:59.384Z,421.05
2022-10-19T19:48:31.136Z,433.95
2022-10-19T19:50:59.849Z,425.40
2022-10-19T19:53:28.800Z,417.73
2022-10-19T19:55:59.657Z,423.67
2022-10-19T19:58:32.371Z,418.67
2022-10-19T20:01:02.487Z,369.92
2022-10-19T20:03:36.184Z,385.00
2022-10-19T20:06:05.340Z,394.42
2022-10-19T20:08:38.858Z,447.42
2022-10-19T20:11:09.270Z,458.73
2022-10-19T20:13:38.350Z,447.00
2022-10-19T20:16:12.910Z,441.35
2022-10-19T20:18:46.466Z,432.52
2022-10-19T20:21:25.781Z,424.40
2022-10-19T20:23:59.158Z,437.23
2022-10-19T20:26:34.600Z,445.45
2022-10-19T20:29:06.425Z,412.02
2022-10-19T20:31:39.643Z,411.70
2022-10-19T20:34:18.586Z,427.52
2022-10-19T20:36:50.355Z,418.27
2022-10-19T20:39:18.884Z,354.52
2022-10-19T20:41:47.463Z,309.90
2022-10-19T20:44:16.126Z,382.25
2022-10-19T20:46:44.715Z,363.00
2022-10-19T20:49:14.884Z,374.30
2022-10-19T20:51:43.608Z,348.70
2022-10-19T20:54:13.213Z,370.67
2022-10-19T20:56:42.659Z,321.10
2022-10-19T20:59:14.299Z,389.42
2022-10-19T21:01:44.226Z,402.70
2022-10-19T21:04:15.511Z,441.67
2022-10-19T21:06:46.009Z,426.02
2022-10-19T21:09:16.321Z,341.27
2022-10-19T21:11:47.500Z,421.65
2022-10-19T21:14:31.074Z,497.48
2022-10-19T21:17:13.705Z,452.10
2022-10-19T21:19:44.794Z,342.10
2022-10-19T21:22:15.114Z,475.02
2022-10-19T21:24:44.257Z,480.42
2022-10-19T21:27:14.283Z,425.55
2022-10-19T21:29:44.415Z,300.88
2022-10-19T21:32:13.419Z,388.98
2022-10-19T21:34:43.471Z,364.10
2022-10-19T21:37:12.368Z,442.73
2022-10-19T21:39:40.946Z,434.27
2022-10-19T21:42:09.534Z,423.75
2022-10-19T21:44:38.257Z,423.02
2022-10-19T21:47:07.937Z,341.10
2022-10-19T21:49:36.444Z,450.77
2022-10-19T21:52:07.047Z,448.33
2022-10-19T21:54:35.622Z,455.15
2022-10-19T21:57:04.399Z,388.10
2022-10-19T21:59:33.098Z,353.27
2022-10-19T22:02:01.791Z,350.60
2022-10-19T22:04:30.537Z,502.27
2022-10-19T22:06:59.752Z,496.60
2022-10-19T22:09:30.405Z,507.42
2022-10-19T22:11:59.643Z,442.85
2022-10-19T22:14:30.401Z,509.13
2022-10-19T22:16:59.170Z,469.85
2022-10-19T22:19:28.434Z,475.45
2022-10-19T22:21:57.527Z,467.92
2022-10-19T22:24:26.614Z,468.88
2022-10-19T22:26:56.860Z,472.25
2022-10-19T22:29:25.925Z,450.83
2022-10-19T22:31:54.921Z,487.52
2022-10-19T22:34:23.945Z,489.08
2022-10-19T22:36:52.817Z,494.02
2022-10-19T22:39:26.974Z,509.83
2022-10-19T22:41:58.343Z,485.52
2022-10-19T22:44:27.068Z,477.52
2022-10-19T22:46:55.631Z,467.05
2022-10-19T22:49:24.423Z,478.92
2022-10-19T22:51:53.133Z,474.33
2022-10-19T22:54:21.630Z,393.13
2022-10-19T22:56:50.335Z,497.52
2022-10-19T22:59:20.411Z,476.70
2022-10-19T23:01:48.946Z,483.80
2022-10-19T23:04:17.373Z,470.25
2022-10-19T23:06:46.135Z,489.98
2022-10-19T23:09:14.953Z,490.65
2022-10-19T23:11:43.837Z,435.55
2022-10-19T23:14:12.483Z,481.80
2022-10-19T23:16:42.372Z,487.90
2022-10-19T23:19:11.230Z,474.23
2022-10-19T23:21:39.995Z,478.20
2022-10-19T23:24:08.786Z,475.75
2022-10-19T23:26:37.668Z,478.65
2022-10-19T23:29:06.270Z,483.48
2022-10-19T23:31:34.770Z,476.75
2022-10-19T23:34:04.956Z,488.65
2022-10-19T23:36:33.757Z,500.02
2022-10-19T23:39:02.576Z,457.77
2022-10-19T23:41:31.331Z,475.83
2022-10-19T23:43:59.954Z,480.17
2022-10-19T23:46:28.474Z,480.23
2022-10-19T23:48:56.949Z,478.20
2022-10-19T23:51:26.852Z,492.00
2022-10-19T23:53:55.587Z,486.20
2022-10-19T23:56:27.467Z,505.33
2022-10-19T23:58:56.841Z,481.10
